Time;durP1;ratioP1;P1;durP2;ratioP2;P2;SDS_P1;SDS_P2;PMS_P1;PMS_P2;Temp;Humidity;BMP_temperature;BMP_pressure;BME280_temperature;BME280_humidity;BME280_pressure;Samples;Min_cycle;Max_cycle;Signal;HPM_P1;HPM_P2
2022/09/05 00:02:05;;;;;;;7.10;5.03;;;;;;;20.20;59.36;101945.50;5957717;23;20414;-66
2022/09/05 00:04:45;;;;;;;10.35;5.63;;;;;;;20.19;59.24;101952.56;5965049;23;20082;-67
2022/09/05 00:07:22;;;;;;;11.68;5.05;;;;;;;20.10;58.79;101947.34;5967070;23;20519;-66
2022/09/05 00:09:57;;;;;;;7.05;4.88;;;;;;;20.05;58.88;101948.28;5950662;23;20095;-67
2022/09/05 00:12:24;;;;;;;8.25;4.70;;;;;;;20.10;58.95;101946.47;5967275;23;20008;-65
2022/09/05 00:15:11;;;;;;;10.23;5.07;;;;;;;19.98;59.20;101941.28;5968685;23;20079;-66
2022/09/05 00:18:19;;;;;;;9.90;5.18;;;;;;;20.00;58.95;101945.69;5962936;23;20019;-66
2022/09/05 00:21:00;;;;;;;7.90;4.90;;;;;;;20.07;58.84;101950.00;5965763;23;20012;-67
2022/09/05 00:24:03;;;;;;;8.60;4.93;;;;;;;20.01;59.39;101942.13;5949709;23;20642;-67
2022/09/05 00:27:00;;;;;;;7.57;5.20;;;;;;;19.82;59.83;101936.09;5971323;23;20019;-67
2022/09/05 00:29:52;;;;;;;7.18;4.75;;;;;;;19.92;59.74;101936.94;5955243;23;20058;-66
2022/09/05 00:32:39;;;;;;;7.97;4.80;;;;;;;19.98;59.21;101933.34;5951032;23;20810;-66
2022/09/05 00:35:31;;;;;;;9.23;5.10;;;;;;;19.90;59.58;101935.16;5957671;23;20159;-65
2022/09/05 00:38:08;;;;;;;7.70;4.65;;;;;;;19.85;59.37;101932.56;5957826;23;20091;-67
2022/09/05 00:41:03;;;;;;;6.55;4.70;;;;;;;19.86;59.41;101929.03;5958482;23;20024;-67
2022/09/05 00:43:31;;;;;;;;;;;;;;;19.83;59.20;101929.03;5959450;23;20011;-66
2022/09/05 00:46:13;;;;;;;6.18;4.47;;;;;;;19.79;59.23;101924.69;5958227;23;19949;-67
2022/09/05 00:48:47;;;;;;;6.57;4.60;;;;;;;19.81;58.99;101922.91;5959585;23;20023;-67
2022/09/05 00:51:41;;;;;;;9.50;4.50;;;;;;;19.84;58.97;101914.94;5965004;23;20561;-67
2022/09/05 00:54:22;;;;;;;7.43;4.55;;;;;;;19.83;59.02;101915.81;5971462;23;20394;-66
2022/09/05 00:57:18;;;;;;;6.38;4.53;;;;;;;19.80;58.50;101911.44;5964958;23;20106;-66
2022/09/05 01:00:08;;;;;;;6.22;4.57;;;;;;;19.82;59.10;101916.72;5958079;23;20020;-67
2022/09/05 01:02:57;;;;;;;6.75;4.32;;;;;;;19.78;58.58;101910.56;5991573;23;20035;-66
2022/09/05 01:05:49;;;;;;;7.35;4.22;;;;;;;19.81;58.38;101925.56;5964013;23;20016;-67
2022/09/05 01:08:48;;;;;;;7.53;4.68;;;;;;;19.73;58.74;101920.31;5960699;23;20042;-66
2022/09/05 01:11:34;;;;;;;6.50;4.50;;;;;;;19.68;58.59;101923.88;5961388;23;20099;-67
2022/09/05 01:14:25;;;;;;;6.47;4.45;;;;;;;19.66;58.42;101923.88;5962394;23;20465;-66
2022/09/05 01:17:18;;;;;;;8.98;4.50;;;;;;;19.63;58.29;101925.69;5953165;23;20011;-67
2022/09/05 01:20:08;;;;;;;10.75;4.20;;;;;;;19.62;58.56;101923.94;5956896;23;20056;-67
2022/09/05 01:22:37;;;;;;;9.70;4.65;;;;;;;19.69;57.42;101920.34;5965288;23;20047;-66
2022/09/05 01:25:22;;;;;;;7.90;4.60;;;;;;;19.97;56.06;101923.66;5959898;23;20092;-66
2022/09/05 01:28:20;;;;;;;14.90;5.05;;;;;;;19.99;56.63;101924.53;5951577;23;20012;-67
2022/09/05 01:31:31;;;;;;;9.55;5.10;;;;;;;20.30;56.44;101920.69;5946002;23;20024;-66
2022/09/05 01:34:10;;;;;;;7.10;4.88;;;;;;;20.35;56.08;101918.03;5955279;23;20284;-68
2022/09/05 01:36:56;;;;;;;11.52;6.10;;;;;;;20.40;54.85;101910.91;5959652;23;20087;-67
2022/09/05 01:39:48;;;;;;;8.35;5.45;;;;;;;20.59;54.78;101917.75;5960224;23;20099;-66
2022/09/05 01:42:32;;;;;;;8.27;5.60;;;;;;;20.72;53.92;101911.44;5968532;23;20016;-66
2022/09/05 01:45:47;;;;;;;8.13;5.90;;;;;;;20.83;54.22;101916.59;5969554;23;20027;-66
2022/09/05 01:48:32;;;;;;;10.18;5.72;;;;;;;20.75;54.47;101921.09;5965201;23;20034;-66
2022/09/05 01:51:13;;;;;;;9.10;5.45;;;;;;;20.92;53.90;101913.84;5962521;23;20363;-66
2022/09/05 01:54:05;;;;;;;10.93;6.00;;;;;;;20.76;55.09;101921.09;5955983;23;20011;-66
2022/09/05 01:56:48;;;;;;;10.32;6.10;;;;;;;20.79;54.39;101912.22;5963478;23;20063;-65
2022/09/05 01:59:36;;;;;;;11.45;6.25;;;;;;;20.84;54.22;101907.75;5971277;23;20012;-65
2022/09/05 02:02:20;;;;;;;8.43;5.78;;;;;;;20.78;54.66;101908.69;5948552;23;20012;-66
2022/09/05 02:05:15;;;;;;;9.30;5.70;;;;;;;20.86;54.84;101905.97;5973097;23;20012;-68
2022/09/05 02:07:47;;;;;;;10.32;6.20;;;;;;;20.74;54.63;101911.41;5959857;23;20181;-66
2022/09/05 02:10:18;;;;;;;10.13;6.95;;;;;;;20.74;55.22;101922.88;5966674;23;20019;-66
2022/09/05 02:13:35;;;;;;;10.88;7.22;;;;;;;20.44;55.35;101917.91;5961604;23;20015;-67
2022/09/05 02:16:03;;;;;;;12.90;7.10;;;;;;;20.56;55.25;101915.13;5907614;23;20355;-67
2022/09/05 02:18:56;;;;;;;11.35;7.60;;;;;;;20.71;54.39;101914.09;5952585;23;20312;-68
2022/09/05 02:21:34;;;;;;;9.35;7.05;;;;;;;20.87;54.03;101905.91;5968491;23;20463;-67
2022/09/05 02:24:23;;;;;;;12.00;7.70;;;;;;;20.76;54.59;101910.47;5949209;23;20119;-67
2022/09/05 02:27:33;;;;;;;9.98;6.90;;;;;;;21.01;54.05;101906.63;5969213;23;20021;-66
2022/09/05 02:30:07;;;;;;;12.23;7.35;;;;;;;20.76;54.10;101910.47;5942159;23;20016;-66
2022/09/05 02:32:36;;;;;;;11.75;7.05;;;;;;;21.06;54.05;101909.22;5969353;23;20043;-66
2022/09/05 02:35:30;;;;;;;10.52;7.35;;;;;;;20.96;54.64;101913.78;5953252;23;20022;-65
2022/09/05 02:38:01;;;;;;;15.10;7.70;;;;;;;20.90;54.46;101915.63;5958104;23;20672;-66
2022/09/05 02:40:35;;;;;;;14.32;7.97;;;;;;;20.77;55.16;101908.72;5967203;23;20008;-66
2022/09/05 02:43:21;;;;;;;12.18;8.07;;;;;;;20.80;54.54;101911.34;5949553;23;20487;-67
2022/09/05 02:45:58;;;;;;;10.48;7.32;;;;;;;20.91;54.89;101910.31;5960566;23;20020;-67
2022/09/05 02:49:04;;;;;;;12.98;8.18;;;;;;;20.72;55.19;101916.72;5958165;23;20027;-67
2022/09/05 02:51:48;;;;;;;16.17;8.27;;;;;;;20.53;55.79;101913.41;5926366;24;20027;-67
2022/09/05 02:54:19;;;;;;;12.57;8.10;;;;;;;20.60;55.72;101917.75;5928321;23;20960;-65
2022/09/05 02:56:50;;;;;;;16.42;8.95;;;;;;;20.49;55.20;101911.66;5939621;24;20018;-67
2022/09/05 02:59:40;;;;;;;13.13;8.80;;;;;;;20.71;54.72;101916.75;5910806;24;20725;-67
2022/09/05 03:02:28;;;;;;;13.85;9.07;;;;;;;20.85;54.41;101921.00;5929810;23;20031;-66
2022/09/05 03:04:59;;;;;;;14.50;9.18;;;;;;;20.79;54.38;101914.88;5909151;24;20169;-66
2022/09/05 03:07:45;;;;;;;13.30;8.82;;;;;;;20.94;54.29;101922.63;5905261;23;20965;-65
2022/09/05 03:10:13;;;;;;;11.88;8.88;;;;;;;20.74;54.50;101922.03;5936621;24;20026;-68
2022/09/05 03:13:03;;;;;;;12.40;9.52;;;;;;;20.73;54.49;101921.13;5929941;23;20042;-68
2022/09/05 03:16:19;;;;;;;13.75;9.25;;;;;;;20.79;54.87;101920.19;5937879;24;20008;-67
2022/09/05 03:19:25;;;;;;;14.02;9.45;;;;;;;20.60;55.33;101917.75;5899028;23;20364;-67
2022/09/05 03:22:12;;;;;;;12.38;9.48;;;;;;;20.55;55.36;101916.91;5929960;24;20007;-66
2022/09/05 03:25:19;;;;;;;14.30;10.05;;;;;;;20.49;55.60;101916.13;5929642;23;20386;-65
2022/09/05 03:28:05;;;;;;;14.65;10.32;;;;;;;20.56;55.79;101915.13;5933412;24;20749;-66
2022/09/05 03:31:08;;;;;;;17.15;10.30;;;;;;;20.56;55.42;101915.13;5932301;23;20020;-66
2022/09/05 03:34:00;;;;;;;14.30;10.00;;;;;;;20.72;55.24;101914.06;5939213;24;20087;-66
2022/09/05 03:36:56;;;;;;;14.18;10.02;;;;;;;20.50;56.00;101916.06;5934614;23;20675;-67
2022/09/05 03:39:43;;;;;;;13.00;10.18;;;;;;;20.39;56.22;101910.03;5940956;24;20039;-66
2022/09/05 03:42:29;;;;;;;13.93;10.00;;;;;;;20.31;56.44;101905.69;5934065;23;20488;-66
2022/09/05 03:45:21;;;;;;;15.93;10.40;;;;;;;20.27;56.66;101915.41;5931061;24;20019;-66
2022/09/05 03:48:04;;;;;;;13.70;10.32;;;;;;;20.35;56.80;101905.66;5928244;24;20023;-67
2022/09/05 03:51:14;;;;;;;14.88;10.40;;;;;;;20.19;57.27;101910.19;5975413;23;20028;-67
2022/09/05 03:53:52;;;;;;;16.55;10.77;;;;;;;20.18;56.98;101910.22;5949227;23;20051;-67
2022/09/05 03:56:39;;;;;;;13.93;10.57;;;;;;;20.15;57.52;101912.88;5964434;23;20015;-67
2022/09/05 03:59:07;;;;;;;17.42;10.73;;;;;;;20.10;57.14;101909.41;5959036;23;20110;-67
2022/09/05 04:01:46;;;;;;;15.07;10.93;;;;;;;20.08;57.18;101909.41;5960651;23;20023;-67
2022/09/05 04:04:33;;;;;;;17.33;10.88;;;;;;;20.34;56.66;101903.91;5970057;23;20582;-65
2022/09/05 04:07:04;;;;;;;16.08;11.18;;;;;;;20.29;56.94;101907.47;5958919;23;20444;-66
2022/09/05 04:09:56;;;;;;;18.30;11.27;;;;;;;20.35;56.89;101903.00;5963307;23;20876;-67
2022/09/05 04:12:24;;;;;;;16.23;11.55;;;;;;;20.22;57.20;101904.00;5970079;23;20729;-67
2022/09/05 04:15:11;;;;;;;18.25;11.32;;;;;;;20.12;57.24;101905.00;5962138;23;20267;-67
2022/09/05 04:17:47;;;;;;;15.00;11.38;;;;;;;20.28;56.92;101909.22;5958497;23;20351;-66
2022/09/05 04:20:46;;;;;;;16.65;11.35;;;;;;;20.27;57.05;101904.81;5966862;23;20574;-66
2022/09/05 04:23:11;;;;;;;15.95;11.40;;;;;;;20.18;57.12;101905.81;5964878;23;20023;-66
2022/09/05 04:26:11;;;;;;;19.33;11.25;;;;;;;20.23;58.04;101903.09;5965252;23;20016;-66
2022/09/05 04:28:46;;;;;;;16.80;11.18;;;;;;;20.23;57.25;101903.09;5963029;23;20075;-66
2022/09/05 04:31:25;;;;;;;17.33;12.23;;;;;;;20.09;57.85;101902.34;5962618;23;20011;-66
2022/09/05 04:33:53;;;;;;;17.95;12.55;;;;;;;20.03;57.57;101899.75;5955066;23;20092;-66
2022/09/05 04:36:29;;;;;;;19.60;11.52;;;;;;;20.18;57.38;101897.88;5969953;23;20085;-66
2022/09/05 04:39:25;;;;;;;20.00;12.02;;;;;;;20.08;57.95;101906.78;5964282;23;20039;-68
2022/09/05 04:42:06;;;;;;;15.60;11.75;;;;;;;20.07;57.69;101907.66;5957718;23;20132;-65
2022/09/05 04:44:39;;;;;;;16.85;12.35;;;;;;;20.01;57.76;101905.06;5973586;23;20011;-66
2022/09/05 04:47:13;;;;;;;21.52;12.15;;;;;;;20.09;57.72;101911.19;5959942;23;20029;-66
2022/09/05 04:49:46;;;;;;;16.40;12.60;;;;;;;20.06;57.71;101911.22;5962215;23;20020;-66
2022/09/05 04:52:40;;;;;;;21.80;12.20;;;;;;;20.05;57.96;101909.47;5963126;23;20015;-66
2022/09/05 04:55:16;;;;;;;18.60;12.10;;;;;;;19.93;57.99;101908.69;5957407;23;20015;-67
2022/09/05 04:58:00;;;;;;;19.25;12.10;;;;;;;19.96;57.73;101913.94;5969618;23;20087;-66
2022/09/05 05:00:28;;;;;;;20.55;12.07;;;;;;;20.05;57.81;101919.16;5963452;23;20542;-67
2022/09/05 05:02:59;;;;;;;17.98;12.00;;;;;;;19.81;58.24;101914.97;5963791;23;20026;-67
2022/09/05 05:05:32;;;;;;;18.45;12.10;;;;;;;19.91;58.33;101915.75;5967721;23;20711;-67
2022/09/05 05:08:15;;;;;;;18.05;12.35;;;;;;;19.96;58.13;101925.41;5977194;23;20035;-67
2022/09/05 05:10:47;;;;;;;17.60;12.20;;;;;;;19.85;58.11;101917.56;5967029;23;20015;-67
2022/09/05 05:13:16;;;;;;;17.20;12.50;;;;;;;19.88;58.27;101921.97;5960762;23;20469;-67
2022/09/05 05:16:16;;;;;;;17.70;12.15;;;;;;;19.87;58.27;101921.97;5959477;23;20016;-66
2022/09/05 05:18:55;;;;;;;17.80;12.27;;;;;;;19.87;58.19;101920.22;5935212;23;20144;-68
2022/09/05 05:21:30;;;;;;;19.65;12.05;;;;;;;20.06;57.66;101926.22;5967860;23;20011;-67
2022/09/05 05:24:00;;;;;;;20.88;12.68;;;;;;;20.12;57.52;101921.75;5979147;23;20092;-66
2022/09/05 05:26:49;;;;;;;18.75;12.50;;;;;;;20.07;57.57;101931.47;5956672;23;20011;-66
2022/09/05 05:29:25;;;;;;;17.52;12.10;;;;;;;20.25;57.27;101933.06;5988145;23;20095;-67
2022/09/05 05:31:57;;;;;;;19.95;12.68;;;;;;;20.15;57.49;101921.72;5961248;23;20011;-66
2022/09/05 05:34:27;;;;;;;16.88;11.88;;;;;;;20.13;57.71;101934.06;5963192;23;20440;-67
2022/09/05 05:37:03;;;;;;;18.55;12.30;;;;;;;20.41;57.33;101923.25;5965334;23;20463;-67
2022/09/05 05:39:31;;;;;;;17.48;11.40;;;;;;;20.43;56.95;101922.34;5963020;23;20083;-68
2022/09/05 05:42:00;;;;;;;22.83;12.05;;;;;;;20.39;56.78;101920.63;5953621;23;20046;-67
2022/09/05 05:44:32;;;;;;;19.40;12.13;;;;;;;20.44;56.81;101925.84;5966689;23;20106;-67
2022/09/05 05:47:02;;;;;;;22.02;12.73;;;;;;;20.48;56.91;101927.59;5967689;23;20007;-66
2022/09/05 05:49:33;;;;;;;20.08;11.95;;;;;;;20.56;56.50;101933.69;5958821;23;20023;-66
2022/09/05 05:52:15;;;;;;;20.92;12.60;;;;;;;20.78;56.46;101927.25;5954746;23;20095;-66
2022/09/05 05:55:09;;;;;;;19.60;12.50;;;;;;;20.78;55.84;101926.38;5963002;23;20016;-67
2022/09/05 05:58:03;;;;;;;19.88;12.15;;;;;;;20.76;55.85;101926.38;5968729;23;20019;-67
2022/09/05 06:00:34;;;;;;;20.50;11.93;;;;;;;21.11;55.18;101922.41;5965811;23;20067;-66
2022/09/05 06:03:15;;;;;;;16.95;11.27;;;;;;;21.02;55.30;101920.75;5962154;23;20340;-66
2022/09/05 06:06:06;;;;;;;17.58;11.65;;;;;;;21.14;54.98;101931.22;5973081;23;20086;-67
2022/09/05 06:09:02;;;;;;;16.95;11.10;;;;;;;21.56;54.45;101928.88;5963842;23;20103;-66
2022/09/05 06:12:03;;;;;;;19.10;12.00;;;;;;;21.32;54.00;101943.38;5967485;23;20392;-67
2022/09/05 06:14:38;;;;;;;19.58;11.90;;;;;;;21.37;54.34;101941.53;5965850;23;20576;-68
2022/09/05 06:17:41;;;;;;;19.38;12.45;;;;;;;21.43;54.07;101941.44;5970619;23;20013;-68
2022/09/05 06:20:16;;;;;;;19.83;12.25;;;;;;;21.50;54.23;101939.56;5956558;23;20022;-67
2022/09/05 06:23:19;;;;;;;20.70;12.25;;;;;;;21.75;54.05;101938.31;5967167;23;20347;-66
2022/09/05 06:26:19;;;;;;;17.80;11.80;;;;;;;21.84;53.33;101933.72;5944110;23;20049;-67
2022/09/05 06:29:15;;;;;;;17.00;11.65;;;;;;;21.78;53.54;101930.28;5963409;23;20012;-67
2022/09/05 06:32:12;;;;;;;20.42;12.05;;;;;;;22.44;51.95;101935.38;5988431;23;20427;-66
2022/09/05 06:34:59;;;;;;;18.25;11.68;;;;;;;22.49;50.87;101939.69;5959238;23;20011;-66
2022/09/05 06:37:29;;;;;;;16.45;12.02;;;;;;;22.23;51.42;101941.94;5968031;23;20011;-66
2022/09/05 06:40:22;;;;;;;16.02;11.23;;;;;;;22.75;51.05;101943.66;5956642;23;20008;-68
2022/09/05 06:42:57;;;;;;;24.38;12.00;;;;;;;23.02;49.26;101943.97;5968311;23;20410;-67
2022/09/05 06:45:38;;;;;;;20.98;11.32;;;;;;;23.82;48.21;101941.25;5960005;23;20019;-67
2022/09/05 06:48:44;;;;;;;18.85;11.82;;;;;;;24.22;48.26;101954.47;5955515;23;20320;-66
2022/09/05 06:51:42;;;;;;;19.75;11.75;;;;;;;24.50;46.86;101949.28;5965482;23;20023;-66
2022/09/05 06:54:16;;;;;;;16.90;11.80;;;;;;;24.16;46.94;101959.03;5908607;23;20291;-66
2022/09/05 06:57:03;;;;;;;17.65;11.50;;;;;;;24.52;46.56;101965.22;5967631;23;20042;-66
2022/09/05 07:00:06;;;;;;;17.63;11.13;;;;;;;24.32;46.83;101964.91;5961805;23;20095;-66
2022/09/05 07:03:00;;;;;;;16.40;10.80;;;;;;;24.72;45.96;101968.22;5971495;23;20057;-66
2022/09/05 07:05:41;;;;;;;21.33;11.20;;;;;;;24.86;45.14;101974.06;5960799;23;20119;-66
2022/09/05 07:08:34;;;;;;;21.95;10.98;;;;;;;24.96;45.06;101980.03;5957108;23;20007;-66
2022/09/05 07:11:09;;;;;;;18.95;10.68;;;;;;;25.05;44.83;101966.44;5959481;23;20019;-66
2022/09/05 07:13:48;;;;;;;17.98;10.52;;;;;;;25.44;43.69;101959.00;5971241;23;20011;-67
2022/09/05 07:16:23;;;;;;;16.73;10.20;;;;;;;25.02;44.37;101966.50;5967166;23;20805;-66
2022/09/05 07:19:14;;;;;;;16.38;10.48;;;;;;;25.35;44.40;101960.16;5965828;23;20059;-66
2022/09/05 07:22:12;;;;;;;16.42;9.65;;;;;;;25.31;44.23;101976.34;5963042;23;20012;-66
2022/09/05 07:24:46;;;;;;;18.95;9.77;;;;;;;26.06;43.25;101982.84;5938503;23;20031;-66
2022/09/05 07:27:32;;;;;;;17.08;9.52;;;;;;;25.56;42.80;101984.44;5964170;23;20507;-66
2022/09/05 07:29:59;;;;;;;18.75;9.60;;;;;;;26.17;43.28;101980.69;5933311;23;20015;-66
2022/09/05 07:32:27;;;;;;;12.98;8.80;;;;;;;26.47;42.05;101990.34;5950362;23;20614;-66
2022/09/05 07:34:56;;;;;;;15.52;9.00;;;;;;;25.77;42.84;101987.34;5959518;23;20016;-67
2022/09/05 07:37:34;;;;;;;16.88;8.70;;;;;;;25.60;43.00;101992.38;5958097;23;20359;-67
2022/09/05 07:40:08;;;;;;;13.00;8.82;;;;;;;25.07;46.22;101996.59;5952951;23;20084;-67
2022/09/05 07:42:40;;;;;;;15.75;9.20;;;;;;;24.57;46.25;101990.00;5944583;23;20007;-66
2022/09/05 07:45:14;;;;;;;13.20;9.00;;;;;;;24.62;46.59;101988.94;5985440;23;20008;-66
2022/09/05 07:48:04;;;;;;;16.50;8.77;;;;;;;24.43;46.68;101982.34;5967482;23;20358;-67
2022/09/05 07:50:46;;;;;;;11.30;8.32;;;;;;;24.44;46.98;101977.91;5948547;23;20110;-67
2022/09/05 07:53:15;;;;;;;12.40;8.48;;;;;;;24.57;46.77;101982.00;5959791;23;20621;-68
2022/09/05 07:55:41;;;;;;;14.70;9.00;;;;;;;24.48;45.99;101980.44;5966228;23;20007;-68
2022/09/05 07:58:13;;;;;;;13.48;8.57;;;;;;;24.89;46.84;101984.66;5955719;23;20024;-66
2022/09/05 08:00:41;;;;;;;12.18;8.00;;;;;;;24.87;45.71;101986.47;5962767;23;20031;-67
2022/09/05 08:03:13;;;;;;;12.00;7.72;;;;;;;24.78;45.89;101988.50;5955703;23;20168;-66
2022/09/05 08:05:49;;;;;;;12.13;7.80;;;;;;;24.95;45.93;101987.16;5955465;23;20016;-66
2022/09/05 08:08:18;;;;;;;10.15;7.70;;;;;;;24.59;46.17;101985.47;5966504;23;20035;-66
2022/09/05 08:11:18;;;;;;;13.88;7.50;;;;;;;24.75;45.62;101992.16;5976697;23;20026;-66
2022/09/05 08:14:00;;;;;;;15.30;8.10;;;;;;;24.94;45.18;101989.88;5902161;23;20547;-67
2022/09/05 08:16:26;;;;;;;11.88;7.20;;;;;;;25.28;44.49;101989.75;5961424;23;20047;-67
2022/09/05 08:19:25;;;;;;;10.32;6.47;;;;;;;26.50;45.01;101992.94;5959006;23;20018;-67
2022/09/05 08:21:52;;;;;;;11.38;6.13;;;;;;;26.61;41.83;101984.53;5955987;23;20452;-67
2022/09/05 08:24:31;;;;;;;9.85;5.70;;;;;;;27.05;42.48;101986.50;5968285;23;20042;-67
2022/09/05 08:27:06;;;;;;;13.73;5.90;;;;;;;26.92;41.36;101987.88;5962944;23;20011;-66
2022/09/05 08:29:47;;;;;;;11.55;5.72;;;;;;;27.20;41.94;101989.53;5963144;23;20096;-67
2022/09/05 08:32:19;;;;;;;10.70;5.93;;;;;;;27.14;41.46;101987.94;5953111;23;20221;-66
2022/09/05 08:35:13;;;;;;;8.88;5.40;;;;;;;26.92;41.28;101987.00;5961160;23;20738;-66
2022/09/05 08:37:39;;;;;;;;;;;;;;;26.99;41.43;101978.69;5969050;23;20068;-66
2022/09/05 08:40:11;;;;;;;14.18;4.65;;;;;;;27.15;40.64;101980.78;5951256;23;20799;-66
2022/09/05 08:42:47;;;;;;;7.25;4.28;;;;;;;27.15;40.60;101976.28;5964554;23;20248;-67
2022/09/05 08:45:12;;;;;;;8.65;4.40;;;;;;;27.26;40.46;101981.25;5966128;23;20491;-67
2022/09/05 08:47:56;;;;;;;10.13;4.15;;;;;;;27.95;40.24;101974.91;5967317;23;20012;-66
2022/09/05 08:50:37;;;;;;;7.32;3.40;;;;;;;28.14;38.39;101977.72;5960386;23;20072;-66
2022/09/05 08:53:22;;;;;;;10.52;3.70;;;;;;;27.53;39.77;101977.50;5964816;23;20024;-66
2022/09/05 08:55:53;;;;;;;13.70;4.03;;;;;;;28.11;40.39;101980.50;5963454;23;20058;-66
2022/09/05 08:58:32;;;;;;;7.97;3.60;;;;;;;28.27;39.53;101970.03;5959548;23;20033;-67
2022/09/05 09:01:27;;;;;;;8.27;3.35;;;;;;;28.83;38.07;101970.25;5971453;23;20007;-66
2022/09/05 09:04:07;;;;;;;6.68;3.50;;;;;;;29.08;37.63;101973.53;5955043;23;20012;-67
2022/09/05 09:07:00;;;;;;;9.57;3.60;;;;;;;28.93;37.84;101967.06;5959738;23;20012;-66
2022/09/05 09:09:26;;;;;;;10.77;3.60;;;;;;;28.26;37.37;101963.78;5989312;23;20012;-66
2022/09/05 09:12:03;;;;;;;6.53;3.15;;;;;;;28.96;38.24;101968.75;5958867;23;20023;-66
2022/09/05 09:14:40;;;;;;;8.63;3.00;;;;;;;28.84;35.98;101966.63;5961992;23;20356;-66
2022/09/05 09:17:39;;;;;;;10.48;3.08;;;;;;;28.69;36.61;101959.22;5963873;23;20032;-67
2022/09/05 09:20:16;;;;;;;5.68;3.03;;;;;;;28.82;36.13;101953.25;5961116;23;20839;-67
2022/09/05 09:23:00;;;;;;;5.68;2.70;;;;;;;29.11;35.99;101956.41;5962926;23;20074;-67
2022/09/05 09:25:42;;;;;;;;;;;;;;;29.07;35.55;101947.63;5972048;23;20008;-67
2022/09/05 09:28:39;;;;;;;5.22;2.60;;;;;;;29.69;34.27;101955.41;5950872;23;20383;-66
2022/09/05 09:31:22;;;;;;;4.40;2.25;;;;;;;29.92;33.88;101950.72;5969088;23;20436;-67
2022/09/05 09:34:03;;;;;;;3.67;2.60;;;;;;;29.63;33.65;101947.63;5961414;23;20015;-66
2022/09/05 09:36:46;;;;;;;4.50;2.60;;;;;;;29.60;34.32;101950.47;5968736;23;20008;-66
2022/09/05 09:39:30;;;;;;;5.55;2.67;;;;;;;29.94;35.22;101952.38;5966704;23;20019;-66
2022/09/05 09:42:02;;;;;;;6.03;2.60;;;;;;;29.54;33.88;101960.63;5954605;23;20020;-67
2022/09/05 09:45:03;;;;;;;11.43;2.80;;;;;;;29.65;34.42;101956.47;5968914;23;20103;-66
2022/09/05 09:47:54;;;;;;;5.05;2.40;;;;;;;30.01;32.69;101953.78;5844492;24;20018;-67
2022/09/05 09:51:00;;;;;;;5.68;2.40;;;;;;;29.87;34.64;101950.03;5958170;23;20026;-66
2022/09/05 09:53:42;;;;;;;6.32;2.35;;;;;;;30.24;33.33;101952.63;5960650;23;20028;-67
2022/09/05 09:56:25;;;;;;;5.55;2.30;;;;;;;30.57;31.75;101941.94;5960841;23;20140;-67
2022/09/05 09:59:36;;;;;;;5.45;2.30;;;;;;;30.67;31.56;101939.66;5959349;23;20020;-67
2022/09/05 10:02:03;;;;;;;5.18;2.38;;;;;;;30.85;33.73;101936.81;5920262;23;20631;-67
2022/09/05 10:04:31;;;;;;;3.83;2.50;;;;;;;30.79;33.16;101925.53;5956185;23;20022;-67
2022/09/05 10:07:16;;;;;;;7.40;2.65;;;;;;;30.74;33.22;101931.13;5965405;23;20381;-66
2022/09/05 10:09:57;;;;;;;5.68;2.45;;;;;;;30.22;33.60;101924.94;5971097;23;20019;-67
2022/09/05 10:12:31;;;;;;;5.15;2.10;;;;;;;31.21;32.15;101916.91;5970028;23;20047;-67
2022/09/05 10:15:29;;;;;;;10.23;2.60;;;;;;;30.24;32.10;101912.28;5966072;23;20611;-67
2022/09/05 10:17:57;;;;;;;7.68;2.60;;;;;;;30.22;33.75;101915.06;5943700;23;20430;-66
2022/09/05 10:21:02;;;;;;;8.77;2.70;;;;;;;30.22;32.08;101922.25;5967430;23;20994;-66
2022/09/05 10:23:33;;;;;;;6.90;2.45;;;;;;;30.67;32.54;101907.34;5953011;23;20019;-66
2022/09/05 10:26:21;;;;;;;7.93;2.47;;;;;;;30.18;32.13;101913.47;5957020;23;20094;-67
2022/09/05 10:29:22;;;;;;;8.93;2.70;;;;;;;30.40;32.15;101913.22;5957971;23;20303;-66
2022/09/05 10:32:22;;;;;;;5.20;2.60;;;;;;;30.14;32.25;101908.31;5910382;23;20103;-66
2022/09/05 10:35:06;;;;;;;9.10;2.30;;;;;;;31.24;31.00;101909.50;5949005;23;20012;-66
2022/09/05 10:38:10;;;;;;;5.18;2.42;;;;;;;31.17;31.61;101905.41;5964307;23;20015;-66
2022/09/05 10:40:38;;;;;;;7.90;2.60;;;;;;;30.97;31.35;101897.56;5959664;23;20012;-66
2022/09/05 10:43:21;;;;;;;10.95;2.45;;;;;;;30.43;32.33;101902.28;5990152;23;20027;-66
2022/09/05 10:46:04;;;;;;;3.95;2.45;;;;;;;31.26;30.94;101901.34;5958087;23;20922;-67
2022/09/05 10:48:53;;;;;;;5.85;2.72;;;;;;;30.60;31.61;101904.13;5969174;23;20410;-68
2022/09/05 10:51:35;;;;;;;6.03;2.60;;;;;;;30.46;31.98;101906.63;5970760;23;20046;-66
2022/09/05 10:54:22;;;;;;;8.03;2.33;;;;;;;30.37;31.42;101904.44;5955071;23;20664;-66
2022/09/05 10:57:19;;;;;;;4.32;2.42;;;;;;;29.99;31.74;101911.81;5962860;23;20841;-66
2022/09/05 10:59:56;;;;;;;7.18;2.47;;;;;;;29.77;32.32;101911.97;5953528;23;20011;-66
2022/09/05 11:02:26;;;;;;;9.60;2.92;;;;;;;29.87;31.82;101907.91;5966967;23;20038;-67
2022/09/05 11:05:05;;;;;;;6.53;2.50;;;;;;;29.63;31.96;101901.94;5965631;23;20094;-67
2022/09/05 11:07:40;;;;;;;6.65;2.50;;;;;;;30.41;31.94;101906.00;5968168;23;20496;-67
2022/09/05 11:10:33;;;;;;;8.48;2.55;;;;;;;31.23;31.04;101909.63;5955452;23;20042;-67
2022/09/05 11:13:13;;;;;;;3.40;2.20;;;;;;;31.90;29.93;101909.28;5968475;23;20027;-67
2022/09/05 11:16:12;;;;;;;4.68;2.20;;;;;;;32.31;28.86;101906.81;5962592;23;20115;-67
2022/09/05 11:18:51;;;;;;;7.30;2.47;;;;;;;32.88;28.00;101907.72;5966921;23;20043;-66
2022/09/05 11:21:25;;;;;;;4.50;2.47;;;;;;;33.18;27.39;101904.91;5967204;23;20318;-67
2022/09/05 11:24:23;;;;;;;6.55;2.70;;;;;;;32.68;28.02;101913.53;5956385;23;20015;-66
2022/09/05 11:27:27;;;;;;;4.97;2.58;;;;;;;32.95;27.67;101892.84;5968136;23;20023;-67
2022/09/05 11:30:01;;;;;;;6.95;2.30;;;;;;;32.66;29.60;101898.34;5942706;23;20034;-66
2022/09/05 11:32:53;;;;;;;5.45;2.22;;;;;;;31.16;29.14;101905.53;5964149;23;20420;-66
2022/09/05 11:35:24;;;;;;;4.93;2.38;;;;;;;31.48;30.23;101893.75;5958288;23;20088;-67
2022/09/05 11:37:59;;;;;;;6.13;2.20;;;;;;;31.52;30.66;101892.63;5961302;23;20091;-67
2022/09/05 11:40:58;;;;;;;5.38;2.20;;;;;;;31.34;29.28;101889.19;5959524;23;20019;-67
2022/09/05 11:43:53;;;;;;;6.10;2.60;;;;;;;31.16;29.45;101887.53;5969746;23;20015;-67
2022/09/05 11:46:43;;;;;;;4.00;2.25;;;;;;;31.38;29.37;101890.75;5959880;23;20078;-67
2022/09/05 11:49:27;;;;;;;3.15;2.00;;;;;;;32.00;28.40;101896.13;5967371;23;20047;-66
2022/09/05 11:52:26;;;;;;;8.57;2.30;;;;;;;31.78;29.16;101873.13;5961132;23;20022;-67
2022/09/05 11:55:19;;;;;;;4.53;2.10;;;;;;;32.08;26.98;101893.84;5958708;23;20022;-66
2022/09/05 11:58:11;;;;;;;4.53;1.80;;;;;;;32.76;26.51;101884.19;5965360;23;20127;-66
2022/09/05 12:00:45;;;;;;;6.25;1.70;;;;;;;32.97;26.30;101882.84;5970103;23;20015;-66
2022/09/05 12:03:39;;;;;;;4.13;1.92;;;;;;;33.18;25.88;101879.72;5969084;23;20019;-66
2022/09/05 12:06:19;;;;;;;;;;;;;;;33.29;26.85;101883.47;5957445;23;20047;-66
2022/09/05 12:08:57;;;;;;;5.53;2.00;;;;;;;32.80;26.45;101880.34;5968992;23;19914;-66
2022/09/05 12:11:54;;;;;;;4.78;2.00;;;;;;;33.16;26.56;101879.81;5960089;23;20038;-66
2022/09/05 12:15:03;;;;;;;2.60;1.65;;;;;;;33.22;26.47;101882.13;5968677;23;20012;-66
2022/09/05 12:17:42;;;;;;;3.60;1.98;;;;;;;33.21;26.67;101866.88;5961572;23;20965;-67
2022/09/05 12:20:21;;;;;;;5.22;2.08;;;;;;;33.27;26.71;101871.00;5963071;23;20012;-68
2022/09/05 12:23:01;;;;;;;6.35;2.50;;;;;;;32.58;29.45;101870.00;5965503;23;20043;-66
2022/09/05 12:25:47;;;;;;;4.38;2.00;;;;;;;33.07;26.49;101871.41;5969036;23;20008;-66
2022/09/05 12:28:23;;;;;;;4.03;1.80;;;;;;;33.08;26.09;101871.31;5964316;23;20078;-66
2022/09/05 12:30:50;;;;;;;9.55;2.00;;;;;;;32.98;26.98;101870.19;5967270;23;20095;-66
2022/09/05 12:33:18;;;;;;;6.95;1.83;;;;;;;33.11;26.96;101870.25;5991203;23;20820;-66
2022/09/05 12:36:02;;;;;;;7.05;2.00;;;;;;;32.77;27.20;101861.63;5961653;23;20832;-66